Time;durP1;ratioP1;P1;durP2;ratioP2;P2;SDS_P1;SDS_P2;PMS_P1;PMS_P2;Temp;Humidity;BMP_temperature;BMP_pressure;BME280_temperature;BME280_humidity;BME280_pressure;Samples;Min_cycle;Max_cycle;Signal;HPM_P1;HPM_P2
2021/11/12 08:43:02;;;;;;;;;;;;;;;;;;409470;23;1972;-86
2021/11/12 08:43:20;;;;;;;;;;;;;;;;;;335676;29;1667;-80
2021/11/12 08:43:35;;;;;;;;;;;;;;;;;;337901;29;1198;-84
2021/11/12 08:43:52;;;;;;;;;;;;;;;;;;338160;29;1008;-78
2021/11/12 08:44:08;;;;;;;;;;;;;;;;;;338535;29;898;-80
2021/11/12 08:44:32;;;;;;;;;;;;;;;;;;338303;29;1052;-79
2021/11/12 08:44:52;;;;;;;;;;;;;;;;;;338246;29;796;-76
2021/11/12 08:45:07;;;;;;;;;;;;;;;;;;338139;29;830;-77
2021/11/12 08:45:38;;;;;;;;;;;;;;;;;;338443;29;996;-86
2021/11/12 08:46:09;;;;;;;;;;;;;;;;;;338488;29;902;-87
2021/11/12 08:47:04;;;;;;;;;;;;;;;;;;339049;29;1016;-84
2021/11/12 08:47:19;;;;;;;;;;;;;;;;;;339012;29;922;-87
2021/11/12 08:47:33;;;;;;;;;;;;;;;;;;338776;29;865;-81
2021/11/12 08:47:48;;;;;;;;;;;;;;;;;;338376;29;1016;-86
2021/11/12 08:48:02;;;;;;;;;;;;;;;;;;338081;29;851;-85
2021/11/12 08:48:17;;;;;;;;;;;;;;;;;;338767;29;1037;-83
2021/11/12 08:49:00;;;;;;;;;;;;;;;;;;336883;29;1442;-85
2021/11/12 08:49:18;;;;;;;;;;;;;;;;;;335335;29;796;-88
2021/11/12 08:49:31;;;;;;;;;;;;;;;;;;336632;29;877;-78
2021/11/12 08:49:43;;;;;;;;;;;;;;;;;;335412;29;1413;-76
2021/11/12 08:49:54;;;;;;;;;;;;;;;;;;335424;29;867;-82
2021/11/12 08:50:06;;;;;;;;;;;;;;;;;;335391;29;823;-81
2021/11/12 08:50:21;;;;;;;;;;;;;;;;;;335419;29;819;-79
2021/11/12 08:50:32;;;;;;;;;;;;;;;;;;336779;29;997;-78
2021/11/12 08:50:43;;;;;;;;;;;;;;;;;;336754;29;811;-80
2021/11/12 08:50:54;;;;;;;;;;;;;;;;;;336867;29;934;-85
2021/11/12 08:51:09;;;;;;;;;;;;;;;;;;337097;29;1103;-77
2021/11/12 08:51:21;;;;;;;;;;;;;;;;;;338194;29;1072;-83
2021/11/12 08:51:36;;;;;;;;;;;;;;;;;;337880;29;1032;-83
2021/11/12 08:51:47;;;;;;;;;;;;;;;;;;338389;29;890;-83
2021/11/12 08:52:28;;;;;;;;;;;;;;;;;;338061;29;937;-83
2021/11/12 08:52:40;;;;;;;;;;;;;;;;;;338009;29;874;-83
2021/11/12 08:52:52;;;;;;;;;;;;;;;;;;338099;29;819;-80
2021/11/12 08:53:08;;;;;;;;;;;;;;;;;;336617;29;1606;-85
2021/11/12 08:53:37;;;;;;;;;;;;;;;;;;336817;29;993;-86
2021/11/12 08:53:48;;;;;;;;;;;;;;;;;;336247;29;1246;-88
2021/11/12 08:53:59;;;;;;;;;;;;;;;;;;336276;29;989;-89
2021/11/12 08:54:10;;;;;;;;;;;;;;;;;;334655;29;1022;-90
2021/11/12 08:54:25;;;;;;;;;;;;;;;;;;334654;29;898;-87
2021/11/12 08:54:37;;;;;;;;;;;;;;;;;;334560;29;982;-89
2021/11/12 08:54:48;;;;;;;;;;;;;;;;;;334094;29;810;-80
2021/11/12 08:55:05;;;;;;;;;;;;;;;;;;334890;29;800;-85
2021/11/12 08:55:19;;;;;;;;;;;;;;;;;;335488;29;1077;-86
2021/11/12 08:55:31;;;;;;;;;;;;;;;;;;336336;29;1508;-88
2021/11/12 08:55:42;;;;;;;;;;;;;;;;;;336860;29;866;-86
2021/11/12 08:55:53;;;;;;;;;;;;;;;;;;336598;29;930;-86
2021/11/12 08:56:23;;;;;;;;;;;;;;;;;;338209;29;637;-84
2021/11/12 08:56:34;;;;;;;;;;;;;;;;;;338116;29;1009;-90
2021/11/12 08:56:44;;;;;;;;;;;;;;;;;;338632;29;1009;-89
2021/11/12 08:56:55;;;;;;;;;;;;;;;;;;337448;29;1559;-89
2021/11/12 08:57:10;;;;;;;;;;;;;;;;;;337101;29;901;-86
2021/11/12 08:57:20;;;;;;;;;;;;;;;;;;336909;29;981;-79
2021/11/12 08:57:30;;;;;;;;;;;;;;;;;;336740;29;1048;-84
2021/11/12 08:57:41;;;;;;;;;;;;;;;;;;336744;29;827;-85
2021/11/12 08:57:52;;;;;;;;;;;;;;;;;;336793;29;994;-88
2021/11/12 08:58:03;;;;;;;;;;;;;;;;;;336666;29;989;-81
2021/11/12 08:58:14;;;;;;;;;;;;;;;;;;337247;29;993;-85
2021/11/12 08:58:24;;;;;;;;;;;;;;;;;;337149;29;773;-88
2021/11/12 08:58:35;;;;;;;;;;;;;;;;;;336891;29;815;-84
2021/11/12 08:58:46;;;;;;;;;;;;;;;;;;337157;29;918;-86
2021/11/12 08:58:57;;;;;;;;;;;;;;;;;;336985;29;1025;-87
2021/11/12 08:59:08;;;;;;;;;;;;;;;;;;335975;29;1970;-81
2021/11/12 08:59:18;;;;;;;;;;;;;;;;;;335831;29;943;-88
2021/11/12 08:59:29;;;;;;;;;;;;;;;;;;336047;29;965;-87
2021/11/12 09:00:55;;;;;;;;;;;;;;;;;;333363;29;1020;-85
2021/11/12 09:01:05;;;;;;;;;;;;;;;;;;332882;29;1268;-82
2021/11/12 09:01:16;;;;;;;;;;;;;;;;;;335926;29;1110;-83
2021/11/12 09:01:26;;;;;;;;;;;;;;;;;;338190;29;854;-89
2021/11/12 09:01:37;;;;;;;;;;;;;;;;;;338055;29;744;-87
2021/11/12 09:01:47;;;;;;;;;;;;;;;;;;337952;29;810;-87
2021/11/12 09:01:59;;;;;;;;;;;;;;;;;;338189;29;1053;-83
2021/11/12 09:02:13;;;;;;;;;;;;;;;;;;336760;29;1001;-85
2021/11/12 09:02:25;;;;;;;;;;;;;;;;;;336711;29;846;-88
2021/11/12 09:02:36;;;;;;;;;;;;;;;;;;336823;29;1068;-87
2021/11/12 09:03:00;;;;;;;;;;;;;;;;;;336844;29;1481;-84
2021/11/12 09:03:11;;;;;;;;;;;;;;;;;;336751;29;815;-85
2021/11/12 09:03:48;;;;;;;;;;;;;;;;;;335523;29;990;-86
2021/11/12 09:03:59;;;;;;;;;;;;;;;;;;335463;29;994;-83
2021/11/12 09:04:10;;;;;;;;;;;;;;;;;;336924;29;966;-87
2021/11/12 09:04:20;;;;;;;;;;;;;;;;;;336781;29;961;-84
2021/11/12 09:04:30;;;;;;;;;;;;;;;;;;336586;29;945;-84
2021/11/12 09:04:42;;;;;;;;;;;;;;;;;;336758;29;1013;-88
2021/11/12 09:04:53;;;;;;;;;;;;;;;;;;336730;29;546;-86
2021/11/12 09:05:04;;;;;;;;;;;;;;;;;;336697;29;1456;-85
2021/11/12 09:05:17;;;;;;;;;;;;;;;;;;337140;29;939;-87
2021/11/12 09:05:40;;;;;;;;;;;;;;;;;;337030;29;862;-87
2021/11/12 09:05:51;;;;;;;;;;;;;;;;;;336753;29;1188;-88
2021/11/12 09:06:02;;;;;;;;;;;;;;;;;;337126;29;858;-83
2021/11/12 09:06:13;;;;;;;;;;;;;;;;;;337130;29;950;-86
2021/11/12 09:06:24;;;;;;;;;;;;;;;;;;337199;29;910;-88
2021/11/12 09:06:35;;;;;;;;;;;;;;;;;;336818;29;1045;-86
2021/11/12 09:06:46;;;;;;;;;;;;;;;;;;337140;29;1024;-88
2021/11/12 09:06:56;;;;;;;;;;;;;;;;;;335642;29;923;-83
2021/11/12 09:07:08;;;;;;;;;;;;;;;;;;334246;29;1346;-87
2021/11/12 09:07:19;;;;;;;;;;;;;;;;;;335727;29;835;-89
2021/11/12 09:07:30;;;;;;;;;;;;;;;;;;334298;29;1296;-90
2021/11/12 09:07:47;;;;;;;;;;;;;;;;;;334913;29;1018;-80
2021/11/12 09:07:58;;;;;;;;;;;;;;;;;;334539;29;1036;-87
2021/11/12 09:08:08;;;;;;;;;;;;;;;;;;334846;29;958;-84
2021/11/12 09:08:19;;;;;;;;;;;;;;;;;;334555;29;887;-88
2021/11/12 09:08:30;;;;;;;;;;;;;;;;;;334673;29;993;-86
2021/11/12 09:08:41;;;;;;;;;;;;;;;;;;335305;29;883;-80
2021/11/12 09:08:52;;;;;;;;;;;;;;;;;;335972;29;982;-80
2021/11/12 09:09:03;;;;;;;;;;;;;;;;;;335909;29;1579;-88
2021/11/12 09:09:13;;;;;;;;;;;;;;;;;;336744;29;1552;-90
2021/11/12 09:09:24;;;;;;;;;;;;;;;;;;336771;29;957;-87
2021/11/12 09:09:36;;;;;;;;;;;;;;;;;;337520;29;1583;-84
2021/11/12 09:09:49;;;;;;;;;;;;;;;;;;336993;29;997;-86
2021/11/12 09:09:59;;;;;;;;;;;;;;;;;;337178;29;1002;-88
2021/11/12 09:10:10;;;;;;;;;;;;;;;;;;337362;29;902;-87
2021/11/12 09:10:21;;;;;;;;;;;;;;;;;;337175;29;832;-85
2021/11/12 09:10:32;;;;;;;;;;;;;;;;;;337234;29;989;-83
2021/11/12 09:10:42;;;;;;;;;;;;;;;;;;336860;29;1602;-81
2021/11/12 09:10:53;;;;;;;;;;;;;;;;;;336072;29;835;-85
2021/11/12 09:11:05;;;;;;;;;;;;;;;;;;336040;29;828;-87
2021/11/12 09:11:15;;;;;;;;;;;;;;;;;;335575;29;847;-88
2021/11/12 09:11:26;;;;;;;;;;;;;;;;;;335607;29;1053;-85
2021/11/12 09:11:39;;;;;;;;;;;;;;;;;;337027;29;827;-82
2021/11/12 09:11:49;;;;;;;;;;;;;;;;;;337036;29;1127;-83
2021/11/12 09:12:00;;;;;;;;;;;;;;;;;;335804;29;1264;-81
2021/11/12 09:12:43;;;;;;;;;;;;;;;;;;336153;29;950;-81
2021/11/12 09:13:19;;;;;;;;;;;;;;;;;;334773;29;1057;-89
2021/11/12 09:13:33;;;;;;;;;;;;;;;;;;331971;29;946;-85
2021/11/12 09:13:50;;;;;;;;;;;;;;;;;;330763;29;1420;-82
2021/11/12 09:14:04;;;;;;;;;;;;;;;;;;330438;30;951;-87
2021/11/12 09:14:18;;;;;;;;;;;;;;;;;;330305;30;832;-88
2021/11/12 09:14:29;;;;;;;;;;;;;;;;;;330397;30;1106;-86
2021/11/12 09:14:50;;;;;;;;;;;;;;;;;;330409;30;847;-86
2021/11/12 09:15:06;;;;;;;;;;;;;;;;;;331630;29;934;-86
2021/11/12 09:15:29;;;;;;;;;;;;;;;;;;331520;29;1021;-85
2021/11/12 09:15:40;;;;;;;;;;;;;;;;;;331662;29;1013;-88
2021/11/12 09:15:53;;;;;;;;;;;;;;;;;;331704;29;966;-84
2021/11/12 09:16:09;;;;;;;;;;;;;;;;;;331665;29;1098;-88
2021/11/12 09:16:29;;;;;;;;;;;;;;;;;;331757;29;939;-87
2021/11/12 09:16:43;;;;;;;;;;;;;;;;;;331536;29;1514;-85
2021/11/12 09:16:54;;;;;;;;;;;;;;;;;;331502;29;966;-86
2021/11/12 09:17:05;;;;;;;;;;;;;;;;;;331536;29;1189;-84
2021/11/12 09:17:17;;;;;;;;;;;;;;;;;;331484;29;951;-85
2021/11/12 09:17:29;;;;;;;;;;;;;;;;;;331550;29;844;-79
2021/11/12 09:17:46;;;;;;;;;;;;;;;;;;332824;29;1496;-86
2021/11/12 09:17:57;;;;;;;;;;;;;;;;;;333116;29;1053;-83
2021/11/12 09:18:08;;;;;;;;;;;;;;;;;;332782;29;990;-80
2021/11/12 09:18:22;;;;;;;;;;;;;;;;;;332980;29;792;-85
2021/11/12 09:18:32;;;;;;;;;;;;;;;;;;333082;29;1290;-81
2021/11/12 09:18:43;;;;;;;;;;;;;;;;;;331582;29;982;-86
2021/11/12 09:18:56;;;;;;;;;;;;;;;;;;331779;29;1078;-86
2021/11/12 09:19:08;;;;;;;;;;;;;;;;;;330280;30;1951;-86
2021/11/12 09:19:18;;;;;;;;;;;;;;;;;;331518;29;1114;-82
2021/11/12 09:19:29;;;;;;;;;;;;;;;;;;332826;29;828;-81
2021/11/12 09:19:50;;;;;;;;;;;;;;;;;;331894;29;811;-85
2021/11/12 09:20:13;;;;;;;;;;;;;;;;;;331635;29;904;-85
2021/11/12 09:20:23;;;;;;;;;;;;;;;;;;330314;30;959;-88
2021/11/12 09:20:34;;;;;;;;;;;;;;;;;;330377;30;876;-83
2021/11/12 09:20:44;;;;;;;;;;;;;;;;;;332851;29;1212;-84
2021/11/12 09:20:55;;;;;;;;;;;;;;;;;;332856;29;879;-82
2021/11/12 09:21:17;;;;;;;;;;;;;;;;;;332809;29;734;-86
2021/11/12 09:21:36;;;;;;;;;;;;;;;;;;331429;29;1239;-84
2021/11/12 09:21:47;;;;;;;;;;;;;;;;;;330247;30;1106;-82
2021/11/12 09:21:58;;;;;;;;;;;;;;;;;;330326;30;1055;-85
2021/11/12 09:22:35;;;;;;;;;;;;;;;;;;332667;29;1184;-83
2021/11/12 09:22:45;;;;;;;;;;;;;;;;;;331592;29;969;-82
2021/11/12 09:22:57;;;;;;;;;;;;;;;;;;331553;29;998;-85
2021/11/12 09:23:08;;;;;;;;;;;;;;;;;;331525;29;1118;-84
2021/11/12 09:23:18;;;;;;;;;;;;;;;;;;331539;29;997;-82
2021/11/12 09:23:29;;;;;;;;;;;;;;;;;;331583;29;950;-81
2021/11/12 09:23:39;;;;;;;;;;;;;;;;;;331677;29;999;-85
2021/11/12 09:23:50;;;;;;;;;;;;;;;;;;332868;29;851;-82
2021/11/12 09:24:01;;;;;;;;;;;;;;;;;;332715;29;907;-82
2021/11/12 09:24:14;;;;;;;;;;;;;;;;;;332732;29;907;-85
2021/11/12 09:24:25;;;;;;;;;;;;;;;;;;332694;29;1630;-82
2021/11/12 09:24:35;;;;;;;;;;;;;;;;;;331610;29;1469;-83
2021/11/12 09:24:46;;;;;;;;;;;;;;;;;;332692;29;1012;-83
2021/11/12 09:24:56;;;;;;;;;;;;;;;;;;332654;29;1098;-87
2021/11/12 09:25:07;;;;;;;;;;;;;;;;;;331923;29;986;-85
2021/11/12 09:25:18;;;;;;;;;;;;;;;;;;331591;29;1014;-90
2021/11/12 09:25:29;;;;;;;;;;;;;;;;;;331643;29;922;-87
2021/11/12 09:25:39;;;;;;;;;;;;;;;;;;331569;29;923;-87
2021/11/12 09:25:50;;;;;;;;;;;;;;;;;;332714;29;1250;-89
2021/11/12 09:26:01;;;;;;;;;;;;;;;;;;334062;29;903;-84
2021/11/12 09:26:12;;;;;;;;;;;;;;;;;;334228;29;994;-85
2021/11/12 09:26:34;;;;;;;;;;;;;;;;;;334012;29;895;-87
2021/11/12 09:26:44;;;;;;;;;;;;;;;;;;334365;29;807;-88
2021/11/12 09:26:55;;;;;;;;;;;;;;;;;;334059;29;962;-85
2021/11/12 09:27:05;;;;;;;;;;;;;;;;;;333962;29;910;-86
2021/11/12 09:27:17;;;;;;;;;;;;;;;;;;334058;29;978;-85
2021/11/12 09:27:27;;;;;;;;;;;;;;;;;;334103;29;468;-85
2021/11/12 09:27:38;;;;;;;;;;;;;;;;;;334171;29;796;-84
2021/11/12 09:27:48;;;;;;;;;;;;;;;;;;333271;29;851;-85
2021/11/12 09:27:58;;;;;;;;;;;;;;;;;;334085;29;795;-85
2021/11/12 09:28:09;;;;;;;;;;;;;;;;;;334097;29;930;-83
2021/11/12 09:28:33;;;;;;;;;;;;;;;;;;334133;29;824;-88
2021/11/12 09:28:43;;;;;;;;;;;;;;;;;;334187;29;823;-86
2021/11/12 09:28:54;;;;;;;;;;;;;;;;;;332874;29;805;-88
2021/11/12 09:29:05;;;;;;;;;;;;;;;;;;332754;29;1304;-87
2021/11/12 09:29:16;;;;;;;;;;;;;;;;;;332730;29;851;-87
2021/11/12 09:29:26;;;;;;;;;;;;;;;;;;333056;29;898;-86
2021/11/12 09:29:37;;;;;;;;;;;;;;;;;;333504;29;1009;-83
2021/11/12 09:29:48;;;;;;;;;;;;;;;;;;333155;29;816;-79
2021/11/12 09:29:58;;;;;;;;;;;;;;;;;;331895;29;1085;-89
2021/11/12 09:30:10;;;;;;;;;;;;;;;;;;331815;29;977;-86
2021/11/12 09:30:23;;;;;;;;;;;;;;;;;;331542;29;797;-88
2021/11/12 09:30:35;;;;;;;;;;;;;;;;;;331574;29;789;-85
2021/11/12 09:30:45;;;;;;;;;;;;;;;;;;331552;29;843;-83
2021/11/12 09:30:55;;;;;;;;;;;;;;;;;;334067;29;768;-80
2021/11/12 09:31:10;;;;;;;;;;;;;;;;;;332843;29;761;-79
2021/11/12 09:31:21;;;;;;;;;;;;;;;;;;332756;29;978;-82
2021/11/12 09:31:32;;;;;;;;;;;;;;;;;;333207;29;843;-86
2021/11/12 09:31:43;;;;;;;;;;;;;;;;;;334064;29;1113;-83
2021/11/12 09:31:54;;;;;;;;;;;;;;;;;;334120;29;816;-86
2021/11/12 09:32:05;;;;;;;;;;;;;;;;;;332870;29;821;-85
2021/11/12 09:32:15;;;;;;;;;;;;;;;;;;332779;29;1076;-85
2021/11/12 09:32:26;;;;;;;;;;;;;;;;;;332757;29;823;-83
2021/11/12 09:32:36;;;;;;;;;;;;;;;;;;332906;29;1030;-86
2021/11/12 09:32:47;;;;;;;;;;;;;;;;;;332724;29;1276;-84
2021/11/12 09:32:57;;;;;;;;;;;;;;;;;;331589;29;832;-82
2021/11/12 09:33:07;;;;;;;;;;;;;;;;;;331567;29;974;-81
2021/11/12 09:33:18;;;;;;;;;;;;;;;;;;331550;29;959;-86
2021/11/12 09:33:28;;;;;;;;;;;;;;;;;;331499;29;1037;-83
2021/11/12 09:33:39;;;;;;;;;;;;;;;;;;332738;29;1342;-86
2021/11/12 09:33:51;;;;;;;;;;;;;;;;;;332652;29;939;-86
2021/11/12 09:34:03;;;;;;;;;;;;;;;;;;335420;29;1068;-86
2021/11/12 09:34:14;;;;;;;;;;;;;;;;;;335435;29;811;-85
2021/11/12 09:34:25;;;;;;;;;;;;;;;;;;335419;29;922;-86
2021/11/12 09:34:37;;;;;;;;;;;;;;;;;;335271;29;957;-82
2021/11/12 09:34:47;;;;;;;;;;;;;;;;;;335246;29;861;-83
2021/11/12 09:34:58;;;;;;;;;;;;;;;;;;335217;29;881;-81
2021/11/12 09:35:09;;;;;;;;;;;;;;;;;;334618;29;1315;-83
2021/11/12 09:35:23;;;;;;;;;;;;;;;;;;334296;29;1545;-82
2021/11/12 09:35:34;;;;;;;;;;;;;;;;;;333664;29;1002;-82
2021/11/12 09:36:13;;;;;;;;;;;;;;;;;;331549;29;1027;-86
2021/11/12 09:36:24;;;;;;;;;;;;;;;;;;331509;29;963;-85
2021/11/12 09:36:35;;;;;;;;;;;;;;;;;;332622;29;734;-84
2021/11/12 09:36:46;;;;;;;;;;;;;;;;;;332751;29;835;-84
2021/11/12 09:36:56;;;;;;;;;;;;;;;;;;331457;29;1257;-82
2021/11/12 09:37:08;;;;;;;;;;;;;;;;;;331490;29;1748;-81
2021/11/12 09:37:23;;;;;;;;;;;;;;;;;;332803;29;804;-83
2021/11/12 09:37:33;;;;;;;;;;;;;;;;;;332895;29;879;-83
2021/11/12 09:37:44;;;;;;;;;;;;;;;;;;332727;29;782;-83
2021/11/12 09:37:54;;;;;;;;;;;;;;;;;;332767;29;828;-85
2021/11/12 09:38:05;;;;;;;;;;;;;;;;;;332756;29;904;-86
2021/11/12 09:38:15;;;;;;;;;;;;;;;;;;332790;29;982;-84
2021/11/12 09:38:26;;;;;;;;;;;;;;;;;;332947;29;982;-84
2021/11/12 09:38:38;;;;;;;;;;;;;;;;;;331483;29;1026;-84
2021/11/12 09:38:48;;;;;;;;;;;;;;;;;;331603;29;1049;-85
2021/11/12 09:38:59;;;;;;;;;;;;;;;;;;332708;29;800;-84
2021/11/12 09:39:09;;;;;;;;;;;;;;;;;;332383;29;2094;-85
2021/11/12 09:39:20;;;;;;;;;;;;;;;;;;331616;29;942;-83
2021/11/12 09:39:30;;;;;;;;;;;;;;;;;;331320;29;1429;-82
2021/11/12 09:39:41;;;;;;;;;;;;;;;;;;331608;29;910;-85
2021/11/12 09:39:57;;;;;;;;;;;;;;;;;;332781;29;836;-84
2021/11/12 09:40:07;;;;;;;;;;;;;;;;;;332692;29;990;-82
2021/11/12 09:40:20;;;;;;;;;;;;;;;;;;332737;29;951;-84
2021/11/12 09:40:49;;;;;;;;;;;;;;;;;;334102;29;642;-83
2021/11/12 09:41:00;;;;;;;;;;;;;;;;;;334069;29;816;-84
2021/11/12 09:41:10;;;;;;;;;;;;;;;;;;333975;29;1014;-81
2021/11/12 09:41:21;;;;;;;;;;;;;;;;;;333951;29;1169;-83
2021/11/12 09:41:58;;;;;;;;;;;;;;;;;;332790;29;820;-83
2021/11/12 09:42:28;;;;;;;;;;;;;;;;;;332797;29;662;-84
2021/11/12 09:42:41;;;;;;;;;;;;;;;;;;332639;29;947;-85
2021/11/12 09:42:51;;;;;;;;;;;;;;;;;;332625;29;1400;-82
2021/11/12 09:43:08;;;;;;;;;;;;;;;;;;332745;29;977;-82
2021/11/12 09:43:18;;;;;;;;;;;;;;;;;;332726;29;836;-83
2021/11/12 09:43:29;;;;;;;;;;;;;;;;;;332762;29;934;-83
2021/11/12 09:43:54;;;;;;;;;;;;;;;;;;332795;29;1037;-82
2021/11/12 09:44:06;;;;;;;;;;;;;;;;;;332738;29;927;-81
2021/11/12 09:44:16;;;;;;;;;;;;;;;;;;332816;29;931;-84
2021/11/12 09:44:26;;;;;;;;;;;;;;;;;;332717;29;1037;-82
2021/11/12 09:45:10;;;;;;;;;;;;;;;;;;332628;29;856;-83
2021/11/12 09:45:21;;;;;;;;;;;;;;;;;;332779;29;919;-82
2021/11/12 09:45:31;;;;;;;;;;;;;;;;;;332728;29;955;-82
2021/11/12 09:45:42;;;;;;;;;;;;;;;;;;332793;29;1006;-86
2021/11/12 09:45:53;;;;;;;;;;;;;;;;;;332741;29;939;-83
2021/11/12 09:46:04;;;;;;;;;;;;;;;;;;332754;29;1046;-85
2021/11/12 09:46:16;;;;;;;;;;;;;;;;;;332743;29;974;-86
2021/11/12 09:46:26;;;;;;;;;;;;;;;;;;332718;29;994;-86
2021/11/12 09:46:37;;;;;;;;;;;;;;;;;;332763;29;915;-85
2021/11/12 09:46:48;;;;;;;;;;;;;;;;;;332754;29;986;-82
2021/11/12 09:46:59;;;;;;;;;;;;;;;;;;332762;29;831;-85
2021/11/12 09:47:10;;;;;;;;;;;;;;;;;;332585;29;974;-82
2021/11/12 09:47:24;;;;;;;;;;;;;;;;;;332785;29;978;-81
2021/11/12 09:47:35;;;;;;;;;;;;;;;;;;332727;29;923;-85
2021/11/12 09:47:45;;;;;;;;;;;;;;;;;;332686;29;971;-81
2021/11/12 09:47:57;;;;;;;;;;;;;;;;;;334035;29;962;-82
2021/11/12 09:48:08;;;;;;;;;;;;;;;;;;333993;29;1047;-78
2021/11/12 09:48:20;;;;;;;;;;;;;;;;;;334061;29;918;-81
2021/11/12 09:48:30;;;;;;;;;;;;;;;;;;333964;29;1115;-84
2021/11/12 09:48:41;;;;;;;;;;;;;;;;;;334042;29;836;-84
2021/11/12 09:48:51;;;;;;;;;;;;;;;;;;334014;29;942;-84
2021/11/12 09:49:03;;;;;;;;;;;;;;;;;;333990;29;911;-83
2021/11/12 09:49:13;;;;;;;;;;;;;;;;;;334078;29;1097;-86
2021/11/12 09:49:24;;;;;;;;;;;;;;;;;;334019;29;1017;-86
2021/11/12 09:49:35;;;;;;;;;;;;;;;;;;334052;29;1006;-86
2021/11/12 09:49:45;;;;;;;;;;;;;;;;;;333981;29;859;-85
2021/11/12 09:50:05;;;;;;;;;;;;;;;;;;331308;29;1431;-86
2021/11/12 09:50:18;;;;;;;;;;;;;;;;;;331443;29;785;-80
2021/11/12 09:50:29;;;;;;;;;;;;;;;;;;331550;29;1018;-84
2021/11/12 09:50:40;;;;;;;;;;;;;;;;;;331485;29;830;-84
2021/11/12 09:50:51;;;;;;;;;;;;;;;;;;331504;29;896;-86
2021/11/12 09:51:14;;;;;;;;;;;;;;;;;;331520;29;983;-85
2021/11/12 09:51:25;;;;;;;;;;;;;;;;;;331583;29;978;-82
2021/11/12 09:51:36;;;;;;;;;;;;;;;;;;331653;29;1100;-83
2021/11/12 09:52:01;;;;;;;;;;;;;;;;;;337935;29;929;-86
2021/11/12 09:52:13;;;;;;;;;;;;;;;;;;337988;29;1601;-87
2021/11/12 09:52:24;;;;;;;;;;;;;;;;;;336763;29;945;-83
2021/11/12 09:52:35;;;;;;;;;;;;;;;;;;335444;29;807;-88
2021/11/12 09:52:46;;;;;;;;;;;;;;;;;;335496;29;942;-87
2021/11/12 09:52:58;;;;;;;;;;;;;;;;;;335394;29;835;-88
2021/11/12 09:53:08;;;;;;;;;;;;;;;;;;335762;29;931;-80
2021/11/12 09:53:19;;;;;;;;;;;;;;;;;;335323;29;808;-83
2021/11/12 09:53:29;;;;;;;;;;;;;;;;;;335378;29;859;-81
2021/11/12 09:53:41;;;;;;;;;;;;;;;;;;335366;29;895;-86
2021/11/12 09:53:51;;;;;;;;;;;;;;;;;;335213;29;997;-83
2021/11/12 09:54:02;;;;;;;;;;;;;;;;;;335345;29;833;-87
2021/11/12 09:54:12;;;;;;;;;;;;;;;;;;335311;29;795;-87
2021/11/12 09:54:23;;;;;;;;;;;;;;;;;;335432;29;808;-85
2021/11/12 09:54:33;;;;;;;;;;;;;;;;;;336308;29;978;-86
2021/11/12 09:54:47;;;;;;;;;;;;;;;;;;335314;29;994;-82
2021/11/12 09:54:58;;;;;;;;;;;;;;;;;;334990;29;1572;-82
2021/11/12 09:55:15;;;;;;;;;;;;;;;;;;335189;29;800;-81
2021/11/12 09:55:27;;;;;;;;;;;;;;;;;;335268;29;820;-83
2021/11/12 09:55:38;;;;;;;;;;;;;;;;;;335185;29;796;-80
2021/11/12 09:55:50;;;;;;;;;;;;;;;;;;335370;29;1379;-83
2021/11/12 09:56:12;;;;;;;;;;;;;;;;;;335236;29;911;-81
2021/11/12 09:56:23;;;;;;;;;;;;;;;;;;335272;29;827;-83
2021/11/12 09:56:34;;;;;;;;;;;;;;;;;;335288;29;863;-82
2021/11/12 09:56:44;;;;;;;;;;;;;;;;;;336506;29;831;-83
2021/11/12 09:56:54;;;;;;;;;;;;;;;;;;336595;29;942;-83
2021/11/12 09:57:05;;;;;;;;;;;;;;;;;;336650;29;1116;-81
2021/11/12 09:57:22;;;;;;;;;;;;;;;;;;336603;29;809;-80
2021/11/12 09:57:32;;;;;;;;;;;;;;;;;;335346;29;1127;-81
2021/11/12 09:57:43;;;;;;;;;;;;;;;;;;335380;29;851;-82
2021/11/12 09:57:53;;;;;;;;;;;;;;;;;;335283;29;1030;-82
2021/11/12 09:58:05;;;;;;;;;;;;;;;;;;335386;29;922;-86
2021/11/12 09:58:18;;;;;;;;;;;;;;;;;;335258;29;819;-84
2021/11/12 09:58:29;;;;;;;;;;;;;;;;;;335385;29;816;-81
2021/11/12 09:58:45;;;;;;;;;;;;;;;;;;334101;29;808;-80
2021/11/12 09:59:14;;;;;;;;;;;;;;;;;;335382;29;629;-82
2021/11/12 10:00:16;;;;;;;;;;;;;;;;;;335575;29;996;-83
2021/11/12 10:00:27;;;;;;;;;;;;;;;;;;336542;29;941;-86
2021/11/12 10:00:39;;;;;;;;;;;;;;;;;;336724;29;861;-87
2021/11/12 10:00:57;;;;;;;;;;;;;;;;;;336773;29;1479;-85
2021/11/12 10:01:08;;;;;;;;;;;;;;;;;;336996;29;863;-82
2021/11/12 10:01:40;;;;;;;;;;;;;;;;;;336648;29;931;-82
2021/11/12 10:01:50;;;;;;;;;;;;;;;;;;336910;29;1408;-84
2021/11/12 10:02:02;;;;;;;;;;;;;;;;;;338030;29;799;-83
2021/11/12 10:02:14;;;;;;;;;;;;;;;;;;337820;29;1056;-79
2021/11/12 10:02:27;;;;;;;;;;;;;;;;;;337975;29;1138;-82
2021/11/12 10:02:42;;;;;;;;;;;;;;;;;;337929;29;929;-81
2021/11/12 10:02:53;;;;;;;;;;;;;;;;;;339159;29;1016;-83
2021/11/12 10:03:06;;;;;;;;;;;;;;;;;;339255;29;1033;-81
2021/11/12 10:03:17;;;;;;;;;;;;;;;;;;339246;29;827;-81
2021/11/12 10:03:43;;;;;;;;;;;;;;;;;;339259;29;909;-83
2021/11/12 10:03:54;;;;;;;;;;;;;;;;;;339182;29;934;-85
2021/11/12 10:04:05;;;;;;;;;;;;;;;;;;339009;29;729;-86
2021/11/12 10:04:16;;;;;;;;;;;;;;;;;;337347;29;1720;-84
2021/11/12 10:04:26;;;;;;;;;;;;;;;;;;336018;29;1774;-86
2021/11/12 10:04:38;;;;;;;;;;;;;;;;;;336554;29;1213;-86
2021/11/12 10:04:49;;;;;;;;;;;;;;;;;;336469;29;1005;-82
2021/11/12 10:05:00;;;;;;;;;;;;;;;;;;336382;29;1260;-75
2021/11/12 10:05:12;;;;;;;;;;;;;;;;;;336476;29;898;-82
2021/11/12 10:05:31;;;;;;;;;;;;;;;;;;335251;29;1273;-79
2021/11/12 10:05:45;;;;;;;;;;;;;;;;;;335195;29;1333;-81
2021/11/12 10:05:56;;;;;;;;;;;;;;;;;;335195;29;1377;-82
2021/11/12 10:06:19;;;;;;;;;;;;;;;;;;335326;29;815;-81
2021/11/12 10:06:33;;;;;;;;;;;;;;;;;;334309;29;1263;-75
2021/11/12 10:06:43;;;;;;;;;;;;;;;;;;333918;29;1689;-80
2021/11/12 10:06:59;;;;;;;;;;;;;;;;;;334032;29;970;-81
2021/11/12 10:07:14;;;;;;;;;;;;;;;;;;333922;29;1001;-78
2021/11/12 10:07:25;;;;;;;;;;;;;;;;;;334016;29;938;-82
2021/11/12 10:07:38;;;;;;;;;;;;;;;;;;334270;29;824;-79
2021/11/12 10:07:48;;;;;;;;;;;;;;;;;;335329;29;875;-78
2021/11/12 10:08:00;;;;;;;;;;;;;;;;;;335355;29;799;-80
2021/11/12 10:08:22;;;;;;;;;;;;;;;;;;335288;29;827;-81
2021/11/12 10:08:37;;;;;;;;;;;;;;;;;;335406;29;812;-86
2021/11/12 10:08:48;;;;;;;;;;;;;;;;;;337989;29;990;-85
2021/11/12 10:08:59;;;;;;;;;;;;;;;;;;338504;29;827;-86
2021/11/12 10:09:17;;;;;;;;;;;;;;;;;;337533;29;1035;-85
2021/11/12 10:09:27;;;;;;;;;;;;;;;;;;338048;29;776;-82
2021/11/12 10:09:38;;;;;;;;;;;;;;;;;;338043;29;874;-81
2021/11/12 10:10:05;;;;;;;;;;;;;;;;;;338141;29;925;-78
2021/11/12 10:10:25;;;;;;;;;;;;;;;;;;338153;29;1373;-82
2021/11/12 10:10:44;;;;;;;;;;;;;;;;;;338255;29;1092;-88
2021/11/12 10:11:02;;;;;;;;;;;;;;;;;;337862;29;910;-83
2021/11/12 10:11:34;;;;;;;;;;;;;;;;;;338147;29;820;-88
2021/11/12 10:11:48;;;;;;;;;;;;;;;;;;338226;29;993;-86
2021/11/12 10:12:02;;;;;;;;;;;;;;;;;;336770;29;863;-84
2021/11/12 10:12:12;;;;;;;;;;;;;;;;;;336751;29;1606;-84
2021/11/12 10:12:32;;;;;;;;;;;;;;;;;;335589;29;926;-82
2021/11/12 10:12:45;;;;;;;;;;;;;;;;;;335596;29;1646;-86
2021/11/12 10:13:00;;;;;;;;;;;;;;;;;;335219;29;1431;-83
2021/11/12 10:13:27;;;;;;;;;;;;;;;;;;335317;29;827;-88
2021/11/12 10:13:42;;;;;;;;;;;;;;;;;;334802;29;1469;-86
2021/11/12 10:14:09;;;;;;;;;;;;;;;;;;336802;29;867;-86
2021/11/12 10:14:30;;;;;;;;;;;;;;;;;;338762;29;994;-83
2021/11/12 10:14:57;;;;;;;;;;;;;;;;;;339398;29;922;-86
2021/11/12 10:15:11;;;;;;;;;;;;;;;;;;337750;29;1139;-80
2021/11/12 10:15:31;;;;;;;;;;;;;;;;;;337788;29;596;-82
2021/11/12 10:15:50;;;;;;;;;;;;;;;;;;337972;29;1058;-84
2021/11/12 10:16:13;;;;;;;;;;;;;;;;;;337755;29;815;-86
2021/11/12 10:16:34;;;;;;;;;;;;;;;;;;337821;29;953;-85
2021/11/12 10:16:53;;;;;;;;;;;;;;;;;;336530;29;1346;-84
2021/11/12 10:17:06;;;;;;;;;;;;;;;;;;336529;29;993;-84
2021/11/12 10:17:18;;;;;;;;;;;;;;;;;;337888;29;858;-85
2021/11/12 10:17:30;;;;;;;;;;;;;;;;;;337827;29;927;-82
2021/11/12 10:17:42;;;;;;;;;;;;;;;;;;337901;29;929;-83
2021/11/12 10:17:52;;;;;;;;;;;;;;;;;;337898;29;938;-81
2021/11/12 10:18:07;;;;;;;;;;;;;;;;;;337889;29;862;-82
2021/11/12 10:18:18;;;;;;;;;;;;;;;;;;337821;29;772;-81
2021/11/12 10:18:29;;;;;;;;;;;;;;;;;;337811;29;1349;-82
2021/11/12 10:19:01;;;;;;;;;;;;;;;;;;338602;29;949;-84
2021/11/12 10:19:14;;;;;;;;;;;;;;;;;;337699;29;1960;-84
2021/11/12 10:19:25;;;;;;;;;;;;;;;;;;337880;29;997;-84
2021/11/12 10:19:53;;;;;;;;;;;;;;;;;;337878;29;1001;-87
2021/11/12 10:20:06;;;;;;;;;;;;;;;;;;337991;29;799;-87
2021/11/12 10:20:28;;;;;;;;;;;;;;;;;;337782;29;902;-83
2021/11/12 10:20:55;;;;;;;;;;;;;;;;;;336877;29;1080;-83
2021/11/12 10:21:06;;;;;;;;;;;;;;;;;;336482;29;1037;-84
2021/11/12 10:21:16;;;;;;;;;;;;;;;;;;336635;29;843;-83
2021/11/12 10:21:31;;;;;;;;;;;;;;;;;;336507;29;950;-85
2021/11/12 10:21:44;;;;;;;;;;;;;;;;;;336607;29;891;-86
2021/11/12 10:21:57;;;;;;;;;;;;;;;;;;336449;29;1175;-78
2021/11/12 10:22:08;;;;;;;;;;;;;;;;;;336526;29;850;-82
2021/11/12 10:22:23;;;;;;;;;;;;;;;;;;336617;29;975;-78
2021/11/12 10:22:35;;;;;;;;;;;;;;;;;;337789;29;1300;-85
2021/11/12 10:22:46;;;;;;;;;;;;;;;;;;337745;29;950;-79
2021/11/12 10:22:56;;;;;;;;;;;;;;;;;;337892;29;827;-79
2021/11/12 10:23:16;;;;;;;;;;;;;;;;;;336503;29;834;-83
2021/11/12 10:23:31;;;;;;;;;;;;;;;;;;336566;29;1013;-85
2021/11/12 10:23:42;;;;;;;;;;;;;;;;;;336494;29;1100;-87